createdAt,value
2018-10-11T00:00:16.602Z,77.83
2018-10-11T00:03:05.544Z,78.60
2018-10-11T00:05:53.466Z,77.60
2018-10-11T00:08:41.946Z,79.90
2018-10-11T00:11:32.162Z,84.73
2018-10-11T00:14:22.595Z,81.20
2018-10-11T00:17:12.266Z,74.10
2018-10-11T00:20:01.193Z,77.60
2018-10-11T00:22:49.585Z,82.60
2018-10-11T00:25:38.851Z,85.60
2018-10-11T00:28:27.361Z,86.33
2018-10-11T00:31:17.014Z,78.20
2018-10-11T00:34:06.024Z,73.37
2018-10-11T00:36:54.945Z,89.37
2018-10-11T00:39:46.003Z,91.37
2018-10-11T00:42:34.996Z,85.30
2018-10-11T00:45:27.408Z,89.20
2018-10-11T00:48:16.445Z,87.73
2018-10-11T00:51:05.843Z,86.27
2018-10-11T00:53:54.652Z,86.73
2018-10-11T00:56:43.461Z,100.13
2018-10-11T00:59:32.411Z,96.27
2018-10-11T01:02:21.051Z,83.23
2018-10-11T01:05:10.123Z,87.43
2018-10-11T01:07:58.742Z,89.13
2018-10-11T01:10:46.980Z,86.70
2018-10-11T01:13:36.097Z,90.63
2018-10-11T01:16:25.206Z,102.03
2018-10-11T01:19:14.015Z,103.10
2018-10-11T01:22:03.039Z,90.70
2018-10-11T01:24:51.529Z,88.10
2018-10-11T01:27:40.562Z,107.67
2018-10-11T01:30:29.422Z,99.13
2018-10-11T01:33:18.173Z,101.70
2018-10-11T01:36:06.504Z,121.22
2018-10-11T01:38:55.886Z,118.13
2018-10-11T01:41:46.616Z,130.63
2018-10-11T01:44:35.915Z,108.67
2018-10-11T01:47:28.966Z,137.27
2018-10-11T01:50:19.725Z,126.10
2018-10-11T01:53:09.823Z,124.40
2018-10-11T01:55:58.405Z,128.40
2018-10-11T01:58:46.636Z,120.80
2018-10-11T02:01:39.485Z,117.63
2018-10-11T02:04:32.343Z,123.63
2018-10-11T02:07:23.214Z,133.10
2018-10-11T02:10:12.200Z,114.93
2018-10-11T02:13:01.779Z,132.23
2018-10-11T02:15:50.539Z,111.63
2018-10-11T02:18:39.773Z,126.80
2018-10-11T02:21:28.523Z,109.63
2018-10-11T02:24:17.412Z,126.10
2018-10-11T02:27:08.086Z,123.00
2018-10-11T02:29:57.254Z,105.17
2018-10-11T02:32:48.573Z,116.37
2018-10-11T02:35:37.479Z,122.60
2018-10-11T02:38:27.451Z,114.67
2018-10-11T02:41:16.698Z,112.93
2018-10-11T02:44:05.317Z,112.17
2018-10-11T02:46:54.329Z,119.20
2018-10-11T02:49:43.090Z,111.87
2018-10-11T02:52:36.028Z,109.53
2018-10-11T02:55:29.464Z,127.07
2018-10-11T02:58:24.410Z,122.33
2018-10-11T03:01:15.628Z,118.47
2018-10-11T03:04:07.036Z,116.13
2018-10-11T03:06:56.288Z,119.70
2018-10-11T03:09:45.634Z,114.63
2018-10-11T03:12:34.405Z,118.00
2018-10-11T03:15:24.213Z,120.53
2018-10-11T03:18:13.471Z,110.10
2018-10-11T03:21:04.789Z,99.80
2018-10-11T03:23:53.120Z,111.30
2018-10-11T03:26:42.001Z,98.30
2018-10-11T03:29:30.857Z,109.90
2018-10-11T03:34:57.080Z,112.27
2018-10-11T03:37:46.402Z,105.40
2018-10-11T03:40:36.825Z,102.50
2018-10-11T03:43:26.090Z,101.10
2018-10-11T03:46:15.571Z,101.00
2018-10-11T03:49:05.069Z,107.53
2018-10-11T03:51:54.896Z,104.37
2018-10-11T03:54:44.541Z,96.50
2018-10-11T03:57:35.448Z,102.57
2018-10-11T04:00:23.859Z,93.57
2018-10-11T04:03:13.118Z,93.50
2018-10-11T04:06:02.540Z,90.90
2018-10-11T04:08:52.533Z,86.53
2018-10-11T04:11:43.682Z,100.67
2018-10-11T04:14:32.877Z,99.80
2018-10-11T04:17:21.625Z,141.00
2018-10-11T04:20:10.801Z,118.07
2018-10-11T04:23:01.181Z,110.57
2018-10-11T04:25:50.593Z,100.10
2018-10-11T04:28:39.006Z,90.37
2018-10-11T04:31:33.232Z,92.50
2018-10-11T04:34:23.595Z,91.13
2018-10-11T04:37:14.850Z,78.93
2018-10-11T04:40:03.172Z,74.57
2018-10-11T04:43:01.744Z,76.90
2018-10-11T04:45:57.007Z,74.20
2018-10-11T04:51:56.077Z,68.50
2018-10-11T04:57:48.525Z,69.80
2018-10-11T05:00:38.591Z,62.33
2018-10-11T05:03:27.379Z,60.07
2018-10-11T05:06:21.491Z,66.67
2018-10-11T05:09:19.957Z,66.40
2018-10-11T05:12:16.960Z,68.13
2018-10-11T05:15:24.939Z,56.73
2018-10-11T05:18:20.379Z,65.47
2018-10-11T05:24:17.274Z,64.90
2018-10-11T05:27:12.398Z,60.80
2018-10-11T05:30:01.984Z,58.63
2018-10-11T05:32:50.501Z,65.07
2018-10-11T05:35:41.015Z,73.73
2018-10-11T05:38:29.511Z,84.90
2018-10-11T05:41:18.234Z,90.13
2018-10-11T05:44:07.240Z,87.80
2018-10-11T05:46:56.075Z,91.43
2018-10-11T05:49:44.690Z,95.97
2018-10-11T05:52:36.283Z,96.10
2018-10-11T05:55:44.247Z,93.43
2018-10-11T06:09:09.219Z,90.20
2018-10-11T06:15:49.522Z,96.77
2018-10-11T06:18:46.160Z,81.27
2018-10-11T06:21:49.391Z,76.07
2018-10-11T06:24:55.223Z,90.67
2018-10-11T06:27:55.939Z,87.67
2018-10-11T06:30:50.226Z,84.37
2018-10-11T06:33:44.657Z,79.53
2018-10-11T06:36:36.234Z,76.97
2018-10-11T06:39:30.901Z,76.63
2018-10-11T06:42:24.658Z,84.50
2018-10-11T06:45:17.788Z,78.70
2018-10-11T06:48:08.135Z,85.90
2018-10-11T06:51:17.532Z,79.57
2018-10-11T06:57:35.054Z,69.77
2018-10-11T07:07:19.010Z,68.90
2018-10-11T07:10:09.417Z,79.23
2018-10-11T07:13:00.226Z,78.47
2018-10-11T07:16:06.648Z,71.40
2018-10-11T07:19:00.583Z,68.23
2018-10-11T07:21:53.737Z,85.00
2018-10-11T07:24:50.555Z,75.97
2018-10-11T07:27:47.829Z,78.33
2018-10-11T07:30:38.315Z,75.10
2018-10-11T07:33:34.253Z,68.70
2018-10-11T07:42:53.342Z,73.37
2018-10-11T07:45:59.659Z,77.43
2018-10-11T07:49:20.868Z,61.30
2018-10-11T07:52:31.663Z,63.10
2018-10-11T07:58:40.453Z,63.68
2018-10-11T08:01:36.505Z,63.33
2018-10-11T10:12:54.977Z,26.62
2018-10-11T10:15:45.808Z,22.87
2018-10-11T10:18:36.902Z,28.03
2018-10-11T10:21:26.796Z,25.57
2018-10-11T10:24:16.951Z,32.10
2018-10-11T10:27:06.179Z,29.15
2018-10-11T10:29:58.212Z,28.27
2018-10-11T10:32:49.758Z,27.53
2018-10-11T10:35:42.701Z,30.23
2018-10-11T10:38:32.365Z,26.50
2018-10-11T10:41:22.686Z,21.80
2018-10-11T10:44:18.509Z,24.43
2018-10-11T10:48:20.533Z,22.67
2018-10-11T10:54:40.954Z,26.53
2018-10-11T11:00:53.887Z,21.37
2018-10-11T11:03:49.546Z,26.97
2018-10-11T11:09:52.619Z,25.87
2018-10-11T11:12:47.985Z,22.17
2018-10-11T11:15:38.831Z,19.10
2018-10-11T11:18:30.943Z,22.00
2018-10-11T11:21:21.963Z,21.30
2018-10-11T11:24:11.314Z,24.27
2018-10-11T11:27:03.569Z,21.20
2018-10-11T11:29:57.476Z,16.17
2018-10-11T11:32:46.683Z,25.27
2018-10-11T11:35:36.647Z,29.87
2018-10-11T11:38:26.367Z,22.93
2018-10-11T11:41:15.994Z,26.77
2018-10-11T11:44:05.046Z,17.47
2018-10-11T11:46:54.435Z,23.27
2018-10-11T11:49:42.955Z,25.37
2018-10-11T11:52:34.327Z,17.90
2018-10-11T11:55:24.041Z,19.43
2018-10-11T11:58:13.903Z,19.73
2018-10-11T12:01:06.548Z,19.70
2018-10-11T12:03:57.981Z,27.47
2018-10-11T12:06:49.537Z,22.97
2018-10-11T12:09:46.886Z,19.27
2018-10-11T12:13:08.935Z,34.83
2018-10-11T12:15:59.786Z,22.20
2018-10-11T12:18:49.947Z,25.70
2018-10-11T12:21:43.829Z,31.23
2018-10-11T12:30:33.636Z,27.37
2018-10-11T12:33:26.162Z,22.47
2018-10-11T12:36:26.642Z,25.57
2018-10-11T12:39:17.743Z,26.00
2018-10-11T12:42:09.129Z,24.93
2018-10-11T12:45:00.799Z,24.07
2018-10-11T12:47:50.959Z,24.70
2018-10-11T12:50:44.651Z,29.07
2018-10-11T12:53:35.545Z,16.63
2018-10-11T12:56:26.441Z,21.60
2018-10-11T12:59:18.451Z,25.17
2018-10-11T13:02:24.556Z,27.27
2018-10-11T13:05:20.318Z,26.20
2018-10-11T13:08:08.933Z,22.57
2018-10-11T13:10:58.600Z,25.90
2018-10-11T13:13:51.173Z,23.57
2018-10-11T13:16:39.532Z,20.03
2018-10-11T13:22:37.927Z,23.37
2018-10-11T13:25:30.585Z,26.40
2018-10-11T13:28:19.945Z,24.87
2018-10-11T13:31:21.651Z,22.83
2018-10-11T13:37:37.817Z,22.50
2018-10-11T13:40:36.633Z,24.57
2018-10-11T13:47:23.324Z,30.03
2018-10-11T13:50:19.557Z,30.68
2018-10-11T13:53:15.422Z,26.93
2018-10-11T13:56:12.465Z,25.70
2018-10-11T13:59:06.964Z,30.13
2018-10-11T14:02:05.897Z,29.83
2018-10-11T14:05:09.499Z,29.57
2018-10-11T14:07:58.972Z,31.70
2018-10-11T14:15:32.961Z,36.33
2018-10-11T14:18:22.555Z,35.13
2018-10-11T14:21:23.313Z,36.20
2018-10-11T14:24:11.724Z,38.13
2018-10-11T14:27:00.078Z,41.33
2018-10-11T14:29:49.265Z,38.33
2018-10-11T14:32:38.192Z,37.80
2018-10-11T14:35:27.145Z,38.07
2018-10-11T14:38:16.164Z,41.30
2018-10-11T14:41:04.401Z,39.70
2018-10-11T14:43:53.718Z,42.53
2018-10-11T14:46:43.353Z,40.10
2018-10-11T14:49:34.389Z,37.63
2018-10-11T14:52:23.300Z,39.47
2018-10-11T14:55:12.822Z,31.47
2018-10-11T14:58:01.384Z,36.43
2018-10-11T15:00:50.669Z,38.20
2018-10-11T15:03:38.391Z,30.43
2018-10-11T15:06:28.352Z,32.60
2018-10-11T15:09:17.157Z,31.50
2018-10-11T15:12:05.816Z,33.97
2018-10-11T15:14:54.285Z,37.47
2018-10-11T15:17:43.634Z,28.73
2018-10-11T15:20:32.230Z,34.57
2018-10-11T15:23:21.314Z,27.57
2018-10-11T15:26:10.634Z,34.80
2018-10-11T15:28:59.564Z,31.37
2018-10-11T15:31:47.670Z,27.73
2018-10-11T15:34:36.664Z,28.57
2018-10-11T15:37:26.433Z,31.87
2018-10-11T15:40:15.740Z,33.33
2018-10-11T15:43:03.882Z,26.60
2018-10-11T15:45:52.698Z,27.33
2018-10-11T15:48:41.378Z,28.40
2018-10-11T15:51:30.186Z,34.30
2018-10-11T15:54:21.068Z,31.90
2018-10-11T15:57:10.208Z,28.57
2018-10-11T15:59:58.938Z,28.60
2018-10-11T16:02:47.498Z,24.77
2018-10-11T16:05:36.053Z,27.27
2018-10-11T16:08:24.503Z,30.90
2018-10-11T16:11:13.169Z,29.33
2018-10-11T16:14:02.046Z,33.70
2018-10-11T16:16:50.434Z,27.63
2018-10-11T16:19:41.466Z,31.73
2018-10-11T16:22:30.089Z,30.27
2018-10-11T16:25:20.875Z,27.53
2018-10-11T16:28:11.532Z,30.43
2018-10-11T16:30:59.978Z,28.47
2018-10-11T16:33:49.049Z,29.97
2018-10-11T16:36:37.705Z,30.07
2018-10-11T16:39:26.268Z,27.80
2018-10-11T16:42:15.759Z,26.43
2018-10-11T16:45:04.962Z,30.97
2018-10-11T16:47:53.516Z,28.10
2018-10-11T16:50:41.957Z,29.97
2018-10-11T16:53:31.347Z,26.57
2018-10-11T16:56:19.917Z,27.60
2018-10-11T16:59:08.997Z,30.33
2018-10-11T17:01:57.242Z,38.10
2018-10-11T17:04:47.010Z,42.60
2018-10-11T17:07:35.113Z,32.20
2018-10-11T17:10:24.696Z,37.83
2018-10-11T17:13:13.713Z,34.97
2018-10-11T17:16:02.820Z,26.27
2018-10-11T17:18:51.188Z,29.17
2018-10-11T17:21:40.498Z,26.17
2018-10-11T17:24:31.371Z,32.87
2018-10-11T17:27:21.770Z,26.83
2018-10-11T17:30:11.211Z,24.33
2018-10-11T17:33:01.605Z,23.27
2018-10-11T17:38:43.058Z,25.10
2018-10-11T17:41:33.171Z,25.23
2018-10-11T17:44:22.161Z,23.70
2018-10-11T17:47:11.056Z,21.47
2018-10-11T17:49:59.675Z,26.50
2018-10-11T17:52:49.431Z,20.50
2018-10-11T17:55:38.103Z,20.67
2018-10-11T17:58:27.175Z,23.40
2018-10-11T18:01:15.713Z,23.97
2018-10-11T18:04:04.455Z,23.10
2018-10-11T18:06:52.623Z,20.13
2018-10-11T18:09:41.058Z,20.60
2018-10-11T18:12:29.554Z,20.57
2018-10-11T18:15:18.895Z,22.20
2018-10-11T18:18:07.324Z,23.03
2018-10-11T18:20:56.443Z,21.50
2018-10-11T18:23:46.276Z,22.00
2018-10-11T18:26:34.354Z,25.73
2018-10-11T18:29:24.341Z,24.53
2018-10-11T18:32:13.041Z,18.47
2018-10-11T18:35:01.768Z,30.23
2018-10-11T18:37:50.535Z,24.40
2018-10-11T18:40:39.596Z,22.90
2018-10-11T18:43:28.235Z,20.47
2018-10-11T18:46:17.134Z,23.73
2018-10-11T18:49:05.826Z,23.20
2018-10-11T18:51:55.064Z,26.70
2018-10-11T18:54:43.093Z,24.80
2018-10-11T18:57:32.085Z,21.60
2018-10-11T19:00:20.812Z,21.03
2018-10-11T19:03:09.927Z,24.90
2018-10-11T19:05:58.215Z,25.87
2018-10-11T19:08:46.801Z,21.47
2018-10-11T19:11:35.892Z,21.83
2018-10-11T19:14:25.483Z,21.50
2018-10-11T19:17:16.329Z,25.53
2018-10-11T19:20:06.034Z,25.50
2018-10-11T19:22:54.323Z,29.90
2018-10-11T19:25:43.118Z,25.20
2018-10-11T19:28:32.190Z,23.73
2018-10-11T19:31:20.561Z,23.67
2018-10-11T19:34:09.070Z,25.70
2018-10-11T19:36:58.146Z,25.30
2018-10-11T19:39:46.521Z,28.53
2018-10-11T19:42:34.744Z,29.77
2018-10-11T19:45:24.780Z,25.10
2018-10-11T19:48:13.288Z,24.93
2018-10-11T19:51:02.156Z,27.47
2018-10-11T19:53:50.901Z,26.33
2018-10-11T19:56:39.241Z,21.57
2018-10-11T19:59:28.609Z,25.97
2018-10-11T20:02:19.930Z,23.13
2018-10-11T20:05:08.331Z,24.90
2018-10-11T20:07:56.975Z,20.17
2018-10-11T20:10:45.610Z,20.00
2018-10-11T20:13:34.198Z,21.73
2018-10-11T20:16:23.823Z,22.37
2018-10-11T20:19:15.365Z,23.80
2018-10-11T20:22:04.044Z,24.30
2018-10-11T20:24:52.677Z,20.40
2018-10-11T20:27:41.314Z,22.20
2018-10-11T20:30:30.501Z,22.20
2018-10-11T20:33:19.563Z,21.00
2018-10-11T20:36:08.236Z,19.07
2018-10-11T20:38:57.148Z,16.93
2018-10-11T20:41:45.825Z,18.00
2018-10-11T20:44:34.643Z,18.70
2018-10-11T20:47:23.181Z,21.50
2018-10-11T20:50:12.980Z,18.00
2018-10-11T20:53:02.304Z,18.13
2018-10-11T20:55:50.678Z,18.33
2018-10-11T20:58:41.263Z,20.30
2018-10-11T21:01:30.332Z,19.07
2018-10-11T21:04:19.037Z,20.17
2018-10-11T21:07:08.205Z,21.43
2018-10-11T21:09:56.681Z,18.67
2018-10-11T21:12:48.363Z,21.07
2018-10-11T21:15:37.208Z,19.17
2018-10-11T21:18:26.545Z,22.40
2018-10-11T21:21:14.754Z,19.00
2018-10-11T21:24:03.737Z,19.03
2018-10-11T21:26:52.613Z,25.13
2018-10-11T21:29:41.088Z,24.43
2018-10-11T21:32:29.582Z,23.53
2018-10-11T21:35:17.957Z,20.87
2018-10-11T21:38:07.086Z,20.17
2018-10-11T21:40:55.987Z,21.63
2018-10-11T21:43:44.797Z,23.70
2018-10-11T21:46:33.467Z,21.97
2018-10-11T21:49:23.085Z,22.13
2018-10-11T21:52:11.156Z,23.00
2018-10-11T21:55:00.151Z,18.73
2018-10-11T21:57:49.126Z,24.80
2018-10-11T22:00:41.462Z,23.30
2018-10-11T22:03:29.962Z,22.83
2018-10-11T22:06:18.730Z,19.57
2018-10-11T22:09:08.581Z,24.17
2018-10-11T22:11:57.289Z,22.27
2018-10-11T22:14:45.771Z,22.67
2018-10-11T22:17:34.441Z,21.13
2018-10-11T22:20:23.239Z,24.13
2018-10-11T22:23:11.719Z,27.80
2018-10-11T22:26:00.891Z,22.40
2018-10-11T22:28:55.552Z,23.97
2018-10-11T22:31:45.366Z,25.90
2018-10-11T22:34:33.672Z,22.27
2018-10-11T22:37:21.821Z,25.80
2018-10-11T22:40:10.452Z,21.30
2018-10-11T22:42:59.786Z,24.63
2018-10-11T22:45:47.952Z,25.77
2018-10-11T22:48:36.498Z,20.23
2018-10-11T22:51:24.903Z,24.00
2018-10-11T22:54:13.888Z,27.33
2018-10-11T22:57:02.035Z,22.20
2018-10-11T22:59:50.823Z,25.60
2018-10-11T23:02:39.680Z,20.50
2018-10-11T23:05:28.252Z,25.33
2018-10-11T23:08:16.983Z,28.70
2018-10-11T23:11:05.783Z,21.77
2018-10-11T23:13:56.834Z,27.27
2018-10-11T23:16:46.028Z,29.97
2018-10-11T23:19:34.948Z,29.17
2018-10-11T23:22:23.176Z,31.97
2018-10-11T23:25:12.267Z,27.70
2018-10-11T23:28:00.801Z,24.80
2018-10-11T23:30:49.729Z,29.60
2018-10-11T23:33:39.878Z,30.83
2018-10-11T23:36:29.461Z,30.17
2018-10-11T23:39:18.088Z,32.57
2018-10-11T23:42:07.399Z,30.03
2018-10-11T23:44:55.580Z,35.87
2018-10-11T23:47:45.560Z,33.17
2018-10-11T23:50:34.735Z,33.13
2018-10-11T23:53:22.871Z,31.67
2018-10-11T23:56:11.861Z,38.87
2018-10-11T23:59:00.594Z,38.07
